Time;durP1;ratioP1;P1;durP2;ratioP2;P2;SDS_P1;SDS_P2;PMS_P1;PMS_P2;Temp;Humidity;BMP_temperature;BMP_pressure;BME280_temperature;BME280_humidity;BME280_pressure;Samples;Min_cycle;Max_cycle;Signal;HPM_P1;HPM_P2
2022/02/11 00:08:41;;;;;;;82.67;29.18;;;;;;;4.09;100.00;101435.33;1463766;95;22505;-88
2022/02/11 00:11:07;;;;;;;79.27;28.45;;;;;;;4.08;100.00;101440.33;1463835;95;21154;-90
2022/02/11 00:13:33;;;;;;;81.05;27.95;;;;;;;4.09;100.00;101444.16;1463941;95;21728;-89
2022/02/11 00:15:59;;;;;;;79.05;28.23;;;;;;;4.08;100.00;101445.66;1463756;96;21169;-89
2022/02/11 00:18:25;;;;;;;87.35;27.65;;;;;;;4.07;100.00;101444.84;1464141;95;21844;-91
2022/02/11 00:20:52;;;;;;;86.37;27.50;;;;;;;4.10;100.00;101442.30;1489044;93;21146;-88
2022/02/11 00:23:21;;;;;;;79.95;27.45;;;;;;;4.09;100.00;101441.48;1532506;91;21077;-88
2022/02/11 00:25:57;;;;;;;79.72;26.97;;;;;;;4.10;100.00;101443.13;1532300;91;21202;-87
2022/02/11 00:33:39;;;;;;;84.90;27.07;;;;;;;4.04;100.00;101435.91;1624817;88;21066;-88
2022/02/11 00:36:08;;;;;;;80.62;28.05;;;;;;;4.04;100.00;101429.23;1624622;88;21073;-88
2022/02/11 01:02:51;;;;;;;72.32;25.68;;;;;;;4.02;100.00;101394.45;1672566;85;20995;-89
2022/02/11 01:05:13;;;;;;;70.97;24.98;;;;;;;4.02;100.00;101396.59;1669224;85;21019;-90
2022/02/11 01:07:39;;;;;;;70.47;26.27;;;;;;;4.03;100.00;101400.09;1672804;85;21479;-89
2022/02/11 01:10:05;;;;;;;69.40;25.55;;;;;;;4.03;100.00;101390.27;1672839;85;21023;-89
2022/02/11 01:12:31;;;;;;;77.37;26.15;;;;;;;4.05;100.00;101390.88;1673216;85;21939;-89
2022/02/11 01:14:58;;;;;;;72.80;25.00;;;;;;;4.06;100.00;101394.39;1673070;85;21082;-90
2022/02/11 01:19:59;;;;;;;80.12;28.45;;;;;;;4.00;100.00;101400.48;1672790;85;21083;-90
2022/02/11 01:30:50;;;;;;;77.08;26.80;;;;;;;4.02;100.00;101396.59;1740105;82;21014;-89
2022/02/11 01:33:20;;;;;;;86.72;29.30;;;;;;;3.95;100.00;101401.09;1739730;82;21610;-90
2022/02/11 01:46:34;;;;;;;87.10;29.35;;;;;;;3.81;100.00;101390.84;1740134;82;21008;-89
2022/02/11 02:02:02;;;;;;;90.55;28.17;;;;;;;3.79;100.00;101383.53;1687895;84;21047;-90
2022/02/11 02:22:30;;;;;;;78.20;26.15;;;;;;;3.61;100.00;101380.55;1536815;90;20971;-90
2022/02/11 02:24:52;;;;;;;81.03;27.07;;;;;;;3.58;100.00;101386.27;1534417;91;21082;-90
2022/02/11 02:57:06;;;;;;;73.52;24.95;;;;;;;3.58;100.00;101377.76;1596013;87;21096;-88
2022/02/11 03:14:19;;;;;;;81.53;26.25;;;;;;;3.63;100.00;101367.86;1573458;91;21069;-88
2022/02/11 04:25:46;;;;;;;94.52;32.20;;;;;;;3.83;100.00;101330.67;1683907;85;21025;-87
2022/02/11 05:00:05;;;;;;;102.40;34.00;;;;;;;3.86;100.00;101334.27;1679949;85;21027;-87
2022/02/11 05:02:35;;;;;;;102.20;32.83;;;;;;;3.87;100.00;101334.58;1685824;85;21019;-87
2022/02/11 05:04:59;;;;;;;99.60;33.50;;;;;;;3.87;100.00;101324.73;1653239;86;21138;-88
2022/02/11 05:07:27;;;;;;;96.25;32.25;;;;;;;3.89;100.00;101327.73;1733825;82;21135;-87
2022/02/11 05:09:53;;;;;;;100.87;33.88;;;;;;;3.87;100.00;101325.25;1782315;80;21077;-88
2022/02/11 05:12:19;;;;;;;102.97;32.45;;;;;;;3.86;100.00;101324.43;1782179;80;20867;-86
2022/02/11 05:14:45;;;;;;;94.07;32.08;;;;;;;3.86;100.00;101331.09;1782189;80;20947;-91
2022/02/11 05:17:11;;;;;;;91.37;28.83;;;;;;;3.87;100.00;101322.06;1782311;80;20907;-91
2022/02/11 05:19:36;;;;;;;88.12;29.45;;;;;;;3.89;100.00;101323.73;1749971;80;20892;-87
2022/02/11 05:22:03;;;;;;;86.60;28.17;;;;;;;3.91;100.00;101309.67;1781962;80;20963;-87
2022/02/11 05:24:29;;;;;;;83.47;29.35;;;;;;;3.91;100.00;101322.48;1782326;80;21492;-86
2022/02/11 05:26:55;;;;;;;85.50;29.60;;;;;;;3.93;100.00;101316.97;1780945;80;20938;-87
2022/02/11 05:29:23;;;;;;;75.95;26.55;;;;;;;3.98;100.00;101315.88;1782198;80;21633;-88
2022/02/11 05:31:50;;;;;;;84.35;28.15;;;;;;;3.99;100.00;101331.66;1731914;82;21575;-87
2022/02/11 05:34:16;;;;;;;82.02;28.20;;;;;;;3.98;100.00;101318.02;1731775;82;21371;-87
2022/02/11 05:36:42;;;;;;;77.35;26.70;;;;;;;4.02;100.00;101323.78;1731669;82;21030;-87
2022/02/11 05:39:08;;;;;;;73.02;25.85;;;;;;;4.02;100.00;101327.27;1732066;82;21146;-87
2022/02/11 05:41:34;;;;;;;81.78;27.22;;;;;;;4.04;100.00;101325.75;1732068;82;20969;-87
2022/02/11 05:44:00;;;;;;;72.90;25.70;;;;;;;4.04;100.00;101310.56;1731858;82;21468;-88
2022/02/11 05:46:33;;;;;;;75.40;24.85;;;;;;;4.06;100.00;101326.38;1731710;82;21890;-88
2022/02/11 05:49:00;;;;;;;74.75;25.10;;;;;;;4.09;100.00;101316.13;1731935;82;21035;-88
2022/02/11 05:51:26;;;;;;;71.72;24.50;;;;;;;4.10;100.00;101317.77;1724866;82;21030;-88
2022/02/11 05:53:53;;;;;;;87.82;26.12;;;;;;;4.08;100.00;101326.47;1714169;82;21143;-87
2022/02/11 05:56:19;;;;;;;67.95;23.80;;;;;;;4.06;100.00;101329.86;1709158;82;21009;-88
2022/02/11 05:58:45;;;;;;;62.95;23.12;;;;;;;4.04;100.00;101325.23;1709032;83;21133;-89
2022/02/11 06:01:11;;;;;;;64.65;22.60;;;;;;;3.99;100.00;101332.99;1688974;83;20958;-88
2022/02/11 06:03:37;;;;;;;66.53;23.07;;;;;;;3.99;100.00;101332.99;1679777;83;21107;-88
2022/02/11 06:06:03;;;;;;;63.05;22.55;;;;;;;4.00;100.00;101333.81;1671690;84;20981;-88
2022/02/11 06:08:53;;;;;;;64.45;21.60;;;;;;;4.02;100.00;101329.11;1682258;83;21125;-89
2022/02/11 06:11:19;;;;;;;65.25;22.58;;;;;;;4.04;100.00;101335.89;1667922;83;21051;-87
2022/02/11 06:13:45;;;;;;;67.03;21.85;;;;;;;4.09;100.00;101335.31;1658680;84;21003;-88
2022/02/11 06:16:11;;;;;;;63.13;21.73;;;;;;;4.09;100.00;101336.65;1658209;84;20924;-88
2022/02/11 06:18:37;;;;;;;64.87;22.50;;;;;;;4.09;100.00;101336.13;1663896;84;21603;-88
2022/02/11 06:21:04;;;;;;;65.37;22.48;;;;;;;4.09;100.00;101342.80;1689717;83;21098;-88
2022/02/11 06:23:35;;;;;;;64.87;22.70;;;;;;;4.10;100.00;101339.10;1665515;84;21155;-88
2022/02/11 06:26:01;;;;;;;65.52;23.40;;;;;;;4.10;100.00;101332.95;1658505;84;21093;-88
2022/02/11 06:28:28;;;;;;;61.80;23.12;;;;;;;4.13;100.00;101333.07;1685538;83;20928;-88
2022/02/11 06:30:58;;;;;;;61.28;21.57;;;;;;;4.15;100.00;101327.00;1726497;81;21567;-89
2022/02/11 06:33:30;;;;;;;64.67;21.73;;;;;;;4.18;100.00;101323.45;1708263;81;21153;-86
2022/02/11 06:35:59;;;;;;;74.58;25.23;;;;;;;4.21;100.00;101326.23;1721793;81;21054;-89
2022/02/11 06:38:25;;;;;;;79.07;25.75;;;;;;;4.26;100.00;101324.58;1716194;81;21094;-88
2022/02/11 06:41:03;;;;;;;75.95;25.57;;;;;;;4.31;100.00;101320.81;1715475;81;21137;-89
2022/02/11 06:43:40;;;;;;;61.35;23.10;;;;;;;4.35;100.00;101319.08;1713802;81;21105;-87
2022/02/11 06:46:17;;;;;;;73.52;25.30;;;;;;;4.39;100.00;101313.67;1706285;83;21065;-88
2022/02/11 06:48:42;;;;;;;63.42;23.10;;;;;;;4.37;100.00;101316.52;1729462;81;21515;-88
2022/02/11 06:51:22;;;;;;;69.85;24.60;;;;;;;4.39;100.00;101315.00;1728565;81;21081;-89
2022/02/11 06:53:49;;;;;;;66.20;22.77;;;;;;;4.43;100.00;101308.23;1729175;81;21002;-88
2022/02/11 06:56:15;;;;;;;65.05;24.90;;;;;;;4.45;100.00;101305.67;1719144;81;21164;-88
2022/02/11 06:58:49;;;;;;;65.05;23.40;;;;;;;4.48;100.00;101295.92;1714031;81;21121;-88
2022/02/11 07:01:44;;;;;;;;;;;;;;;;;;;;;
2022/02/11 07:04:01;;;;;;;73.15;24.37;;;;;;;4.47;100.00;101297.45;1658556;85;21014;-88
2022/02/11 07:06:27;;;;;;;66.75;22.55;;;;;;;4.50;100.00;101295.22;1659011;85;21164;-89
2022/02/11 07:08:53;;;;;;;70.47;24.45;;;;;;;4.46;100.00;101285.95;1654623;85;21593;-88
2022/02/11 07:11:19;;;;;;;65.50;22.17;;;;;;;4.53;100.00;101292.15;1645216;85;21094;-88
2022/02/11 07:13:46;;;;;;;59.88;21.77;;;;;;;4.56;100.00;101286.92;1596782;87;40212;-88
2022/02/11 07:16:15;;;;;;;59.55;21.07;;;;;;;4.60;100.00;101288.67;1679366;85;21027;-88
2022/02/11 07:18:40;;;;;;;61.75;22.42;;;;;;;4.63;100.00;101283.73;1680931;85;21089;-87
2022/02/11 07:21:08;;;;;;;62.58;22.15;;;;;;;4.66;100.00;101279.33;1658477;85;21163;-87
2022/02/11 07:23:34;;;;;;;62.93;22.50;;;;;;;4.69;100.00;101276.77;1638762;87;21045;-88
2022/02/11 07:26:03;;;;;;;59.50;22.17;;;;;;;4.72;100.00;101270.50;1638179;87;21097;-88
2022/02/11 07:28:29;;;;;;;61.60;21.82;;;;;;;4.76;100.00;101270.41;1638563;87;21097;-87
2022/02/11 07:30:58;;;;;;;59.08;22.13;;;;;;;4.82;100.00;101271.42;1665233;85;21590;-88
2022/02/11 07:33:27;;;;;;;54.80;21.33;;;;;;;4.86;100.00;101266.00;1672456;85;21059;-89
2022/02/11 07:35:53;;;;;;;56.75;21.97;;;;;;;4.89;100.00;101260.77;1645431;87;21052;-88
2022/02/11 07:38:30;;;;;;;;;;;;;;;;;;;;;
2022/02/11 07:40:49;;;;;;;52.62;20.30;;;;;;;5.01;100.00;101261.78;1538792;91;21167;-88
2022/02/11 07:43:25;;;;;;;;;;;;;;;;;;;;;
2022/02/11 07:45:50;;;;;;;51.02;18.75;;;;;;;5.08;100.00;101253.23;1559875;92;21126;-88
2022/02/11 07:48:22;;;;;;;45.98;19.17;;;;;;;5.15;100.00;101255.92;1559736;91;21269;-89
2022/02/11 07:50:53;;;;;;;46.23;17.17;;;;;;;5.11;100.00;101242.66;1464715;96;21210;-89
2022/02/11 07:53:20;;;;;;;38.95;15.68;;;;;;;5.22;100.00;101250.86;1439591;98;21138;-90
2022/02/11 07:55:46;;;;;;;46.90;17.85;;;;;;;5.24;100.00;101251.48;1386682;103;21157;-89
2022/02/11 07:58:13;;;;;;;45.63;17.32;;;;;;;5.25;100.00;101249.63;1386824;103;21432;-90
2022/02/11 08:00:40;;;;;;;46.37;16.40;;;;;;;5.27;100.00;101250.77;1372357;101;21229;-89
2022/02/11 08:03:06;;;;;;;46.95;17.25;;;;;;;5.28;100.00;101247.05;1360277;105;21417;-89
2022/02/11 08:05:32;;;;;;;40.88;16.05;;;;;;;5.32;100.00;101246.94;1356457;104;21136;-91
2022/02/11 08:07:59;;;;;;;50.28;16.23;;;;;;;5.32;100.00;101242.41;1355918;104;21100;-90
2022/02/11 08:10:25;;;;;;;44.30;15.72;;;;;;;5.32;100.00;101246.41;1357707;105;21633;-90
2022/02/11 08:13:04;;;;;;;;;;;;;;;;;;;;;
2022/02/11 08:15:22;;;;;;;48.13;16.55;;;;;;;5.28;100.00;101243.86;1466268;97;21073;-89
2022/02/11 08:17:49;;;;;;;47.55;15.95;;;;;;;5.28;100.00;101239.85;1448149;97;21020;-89
2022/02/11 08:20:18;;;;;;;42.90;16.05;;;;;;;5.28;100.00;101239.04;1441121;99;21346;-89
2022/02/11 08:25:17;;;;;;;48.38;16.60;;;;;;;5.28;100.00;101236.37;1431945;100;21083;-89
2022/02/11 08:30:14;;;;;;;52.45;18.62;;;;;;;5.31;100.00;101234.09;1365518;103;21200;-89
2022/02/11 08:32:43;;;;;;;56.95;19.48;;;;;;;5.33;100.00;101233.89;1365800;103;21768;-89
2022/02/11 08:35:12;;;;;;;59.48;18.75;;;;;;;5.33;100.00;101235.23;1351373;104;21714;-88
2022/02/11 08:37:42;;;;;;;55.78;18.27;;;;;;;5.33;100.00;101229.37;1346336;104;21345;-87
2022/02/11 08:40:09;;;;;;;61.20;19.40;;;;;;;5.34;100.00;101235.53;1295748;109;21266;-88
2022/02/11 08:42:35;;;;;;;55.50;19.12;;;;;;;5.37;100.00;101230.58;1295943;109;21641;-86
2022/02/11 08:45:02;;;;;;;55.88;18.37;;;;;;;5.36;100.00;101228.12;1296139;109;21041;-87
2022/02/11 08:47:32;;;;;;;48.30;16.67;;;;;;;5.34;100.00;101228.33;1299117;108;21227;-87
2022/02/11 08:49:59;;;;;;;45.40;16.82;;;;;;;5.31;100.00;101229.27;1303128;108;21168;-87
2022/02/11 08:52:25;;;;;;;49.20;17.48;;;;;;;5.30;100.00;101224.44;1316481;105;21287;-89
2022/02/11 08:54:52;;;;;;;55.03;17.60;;;;;;;5.32;100.00;101226.37;1344400;105;21202;-89
2022/02/11 08:57:19;;;;;;;50.65;17.02;;;;;;;5.31;100.00;101225.26;1342360;105;21188;-89
2022/02/11 08:59:47;;;;;;;55.83;17.60;;;;;;;5.30;100.00;101220.44;1348477;103;22308;-90
2022/02/11 09:02:14;;;;;;;55.33;17.48;;;;;;;5.33;100.00;101217.34;1376967;102;21211;-90
2022/02/11 09:04:51;;;;;;;53.28;17.27;;;;;;;5.34;100.00;101208.80;1372900;101;21207;-90
2022/02/11 09:07:16;;;;;;;51.92;17.02;;;;;;;5.38;100.00;101197.50;1373138;101;21689;-90
2022/02/11 09:09:42;;;;;;;60.35;18.50;;;;;;;5.42;100.00;101198.70;1372334;102;21272;-88
2022/02/11 09:12:09;;;;;;;49.55;17.57;;;;;;;5.48;100.00;101192.22;1395310;99;21571;-88
2022/02/11 09:14:35;;;;;;;52.05;18.15;;;;;;;5.52;100.00;101192.09;1444419;97;21158;-89
2022/02/11 09:17:02;;;;;;;50.30;16.77;;;;;;;5.55;100.00;101186.31;1427476;98;21354;-89
2022/02/11 09:19:39;;;;;;;53.25;17.35;;;;;;;5.57;100.00;101180.25;1428092;98;21661;-89
2022/02/11 09:22:11;;;;;;;48.13;16.67;;;;;;;5.58;100.00;101176.02;1404491;99;21165;-88
2022/02/11 09:24:37;;;;;;;44.83;16.17;;;;;;;5.64;100.00;101173.02;1429603;98;21207;-88
2022/02/11 09:27:08;;;;;;;46.77;15.88;;;;;;;5.65;100.00;101177.34;1450063;94;21120;-89
2022/02/11 09:29:45;;;;;;;48.58;17.17;;;;;;;5.70;100.00;101172.16;1544833;90;21519;-89
2022/02/11 09:32:10;;;;;;;42.03;14.87;;;;;;;5.73;100.00;101170.91;1575414;89;21051;-90
2022/02/11 09:34:37;;;;;;;51.42;18.05;;;;;;;5.75;100.00;101172.87;1596595;88;21192;-89
2022/02/11 09:37:04;;;;;;;47.90;16.30;;;;;;;5.79;100.00;101166.05;1634033;85;21024;-90
2022/02/11 09:39:30;;;;;;;52.15;17.20;;;;;;;5.86;100.00;101165.52;1675400;83;21531;-89
2022/02/11 09:41:58;;;;;;;44.20;15.85;;;;;;;5.91;100.00;101162.99;1688783;83;21135;-90
2022/02/11 09:44:28;;;;;;;45.40;15.23;;;;;;;5.95;100.00;101164.25;1683330;83;21117;-90
2022/02/11 09:46:55;;;;;;;41.05;15.75;;;;;;;6.01;100.00;101162.58;1675592;85;21130;-90
2022/02/11 09:49:22;;;;;;;41.08;14.80;;;;;;;6.08;100.00;101158.80;1682150;82;21042;-90
2022/02/11 09:51:53;;;;;;;49.63;15.80;;;;;;;6.19;100.00;101157.30;1690323;83;21093;-89
2022/02/11 09:54:22;;;;;;;44.95;15.28;;;;;;;6.28;100.00;101149.83;1616133;85;21118;-89
2022/02/11 09:56:52;;;;;;;42.67;14.87;;;;;;;6.35;100.00;101145.23;1609895;87;21161;-89
2022/02/11 09:59:20;;;;;;;40.35;13.90;;;;;;;6.45;100.00;101140.22;1612959;87;21149;-89
2022/02/11 10:01:47;;;;;;;39.00;13.45;;;;;;;6.55;100.00;101140.53;1662321;85;21199;-90
2022/02/11 10:04:22;;;;;;;39.40;14.33;;;;;;;6.67;100.00;101130.45;1636305;86;21598;-91
2022/02/11 10:06:51;;;;;;;40.58;14.07;;;;;;;6.77;100.00;101132.11;1612139;85;21154;-90
2022/02/11 10:09:23;;;;;;;44.63;14.53;;;;;;;6.93;100.00;101136.06;1684979;84;21093;-90
2022/02/11 10:11:53;;;;;;;37.20;14.07;;;;;;;7.09;100.00;101130.62;1629687;86;21120;-88
2022/02/11 10:14:33;;;;;;;39.20;15.48;;;;;;;7.28;100.00;101130.41;1641821;86;21110;-87
2022/02/11 10:17:00;;;;;;;36.10;13.95;;;;;;;7.44;100.00;101128.15;1628462;86;21098;-87
2022/02/11 10:19:40;;;;;;;41.08;13.98;;;;;;;7.59;100.00;101117.86;1640339;86;21834;-88
2022/02/11 10:22:20;;;;;;;37.65;13.62;;;;;;;7.81;100.00;101120.03;1615690;86;21156;-88
2022/02/11 10:24:48;;;;;;;34.33;12.33;;;;;;;8.00;100.00;101118.09;1577297;89;21181;-88
2022/02/11 10:27:22;;;;;;;35.73;12.63;;;;;;;8.02;100.00;101113.33;1577844;89;21048;-88
2022/02/11 10:29:51;;;;;;;31.65;12.30;;;;;;;8.11;100.00;101115.97;1572872;91;21086;-88
2022/02/11 10:32:17;;;;;;;36.98;12.88;;;;;;;8.31;100.00;101104.91;1546846;91;21296;-88
2022/02/11 10:34:54;;;;;;;32.58;11.12;;;;;;;8.54;100.00;101105.49;1572942;91;21706;-88
2022/02/11 10:37:20;;;;;;;27.93;10.45;;;;;;;8.67;100.00;101101.74;1573194;91;21096;-88
2022/02/11 10:39:56;;;;;;;37.73;12.10;;;;;;;8.80;100.00;101104.20;1572931;91;21550;-88
2022/02/11 10:42:23;;;;;;;25.40;10.28;;;;;;;8.96;100.00;101100.77;1571533;91;21064;-87
2022/02/11 10:44:49;;;;;;;27.65;9.83;;;;;;;9.08;100.00;101097.53;1552610;91;21550;-87
2022/02/11 10:47:17;;;;;;;26.65;10.70;;;;;;;9.20;100.00;101091.31;1572975;91;22079;-89
2022/02/11 10:49:47;;;;;;;27.70;10.03;;;;;;;9.39;100.00;101091.97;1573290;91;21085;-89
2022/02/11 10:52:23;;;;;;;25.95;10.05;;;;;;;9.61;100.00;101090.22;1626892;87;21126;-90
2022/02/11 10:54:52;;;;;;;21.97;8.78;;;;;;;9.81;100.00;101091.13;1632865;87;21034;-89
2022/02/11 10:57:23;;;;;;;25.12;9.18;;;;;;;10.00;100.00;101080.97;1632709;87;21931;-89
2022/02/11 10:59:50;;;;;;;24.32;8.60;;;;;;;10.07;100.00;101083.50;1601295;89;21734;-89
2022/02/11 11:02:23;;;;;;;19.85;8.73;;;;;;;10.13;100.00;101075.78;1586806;90;21078;-89
2022/02/11 11:04:55;;;;;;;22.82;7.45;;;;;;;10.22;100.00;101075.66;1558074;91;21187;-90
2022/02/11 11:07:29;;;;;;;16.67;7.85;;;;;;;10.29;100.00;101074.98;1557655;91;21646;-90
2022/02/11 11:09:56;;;;;;;19.87;9.03;;;;;;;10.40;100.00;101075.42;1599334;89;21202;-91
2022/02/11 11:12:26;;;;;;;15.90;8.33;;;;;;;10.45;100.00;101071.46;1594270;88;21625;-90
2022/02/11 11:14:56;;;;;;;23.65;8.45;;;;;;;10.49;100.00;101064.23;1619341;87;21136;-90
2022/02/11 11:17:25;;;;;;;19.92;7.80;;;;;;;10.55;100.00;101061.89;1620729;88;21042;-90
2022/02/11 11:19:54;;;;;;;23.55;8.85;;;;;;;10.68;100.00;101060.20;1620463;87;21105;-91
2022/02/11 11:22:40;;;;;;;21.00;8.70;;;;;;;10.86;100.00;101058.55;1619519;87;21193;-91
2022/02/11 11:25:08;;;;;;;24.07;9.03;;;;;;;11.00;100.00;101027.15;1541847;92;21092;-91
2022/02/11 11:27:53;;;;;;;18.62;7.05;;;;;;;11.29;100.00;101046.63;1535228;92;21120;-93
2022/02/11 11:30:38;;;;;;;20.10;7.20;;;;;;;11.35;100.00;101042.92;1517253;93;21100;-92
2022/02/11 11:33:10;;;;;;;18.82;7.60;;;;;;;11.17;100.00;101045.42;1519656;92;21156;-89
2022/02/11 11:35:46;;;;;;;23.35;8.03;;;;;;;11.05;100.00;101039.35;1517667;92;21396;-90
2022/02/11 11:38:21;;;;;;;15.75;7.50;;;;;;;10.88;100.00;101036.71;1538075;92;21115;-89
2022/02/11 11:41:12;;;;;;;16.48;6.97;;;;;;;10.78;100.00;101041.45;1540395;92;21115;-90
2022/02/11 11:43:51;;;;;;;16.75;6.70;;;;;;;10.59;100.00;101027.47;1545999;92;21475;-90
2022/02/11 11:46:23;;;;;;;15.13;6.05;;;;;;;10.60;100.00;101045.80;1533803;92;20977;-90
2022/02/11 11:48:59;;;;;;;20.05;6.35;;;;;;;10.61;100.00;101044.72;1543811;90;21041;-92
2022/02/11 11:51:28;;;;;;;13.40;5.85;;;;;;;10.53;100.00;101039.25;1550716;90;21139;-90
2022/02/11 11:54:22;;;;;;;15.05;6.10;;;;;;;10.53;100.00;101041.10;1545543;91;21290;-92
2022/02/11 11:57:05;;;;;;;16.00;6.28;;;;;;;10.54;100.00;101046.26;1564922;89;21032;-93
2022/02/11 11:59:50;;;;;;;19.12;6.60;;;;;;;10.46;100.00;101037.25;1544187;91;21144;-90
2022/02/11 12:02:28;;;;;;;19.12;7.08;;;;;;;10.29;100.00;101034.56;1532114;92;22829;-91
2022/02/11 12:04:59;;;;;;;18.87;7.12;;;;;;;10.23;100.00;101039.56;1554789;92;21204;-92
2022/02/11 12:07:29;;;;;;;16.40;6.80;;;;;;;10.21;100.00;101032.28;1545110;92;21104;-92
2022/02/11 12:09:59;;;;;;;20.48;7.10;;;;;;;10.19;100.00;101025.78;1548659;92;21008;-92
2022/02/11 12:12:29;;;;;;;15.20;6.72;;;;;;;10.20;100.00;101025.25;1536495;92;21108;-90
2022/02/11 12:14:58;;;;;;;15.40;6.30;;;;;;;10.22;100.00;101022.59;1532960;93;21169;-92
2022/02/11 12:17:26;;;;;;;19.82;7.70;;;;;;;10.29;100.00;101025.14;1512862;94;21018;-90
2022/02/11 12:19:56;;;;;;;20.27;6.97;;;;;;;10.35;100.00;101024.18;1511149;94;21245;-90
2022/02/11 12:22:26;;;;;;;15.45;6.25;;;;;;;10.35;100.00;101027.37;1529599;92;21108;-90
2022/02/11 12:27:42;;;;;;;18.92;6.53;;;;;;;10.33;100.00;101028.18;1554933;90;21602;-90
2022/02/11 12:30:16;;;;;;;16.10;6.28;;;;;;;10.34;100.00;101034.66;1581147;90;21054;-91
2022/02/11 12:32:53;;;;;;;18.23;6.45;;;;;;;10.33;100.00;101033.56;1581122;90;21119;-90
2022/02/11 12:35:24;;;;;;;13.55;5.37;;;;;;;10.27;100.00;101023.25;1593444;89;21118;-91
2022/02/11 12:37:51;;;;;;;18.50;6.28;;;;;;;10.23;100.00;101026.94;1594001;89;21161;-90
2022/02/11 12:40:28;;;;;;;12.18;5.80;;;;;;;10.16;100.00;101020.89;1620491;88;21087;-91
2022/02/11 12:43:04;;;;;;;14.38;6.05;;;;;;;10.10;100.00;101026.45;1625357;88;20982;-90
2022/02/11 12:45:40;;;;;;;13.90;5.17;;;;;;;10.01;100.00;101021.47;1623238;88;20975;-91
2022/02/11 12:48:13;;;;;;;20.23;6.47;;;;;;;9.93;100.00;101016.49;1579940;90;21555;-91
2022/02/11 12:50:42;;;;;;;15.72;6.22;;;;;;;9.89;100.00;101011.32;1577937;90;21056;-92
2022/02/11 12:53:10;;;;;;;16.30;6.67;;;;;;;9.85;100.00;101020.12;1549534;90;21163;-92
2022/02/11 12:55:38;;;;;;;21.30;6.67;;;;;;;9.77;100.00;101010.59;1568931;87;21077;-92
2022/02/11 12:58:10;;;;;;;20.88;7.00;;;;;;;9.72;100.00;101009.96;1593552;89;21129;-92
2022/02/11 13:00:43;;;;;;;14.07;5.50;;;;;;;9.66;100.00;101008.78;1613890;88;21162;-92
2022/02/11 13:03:13;;;;;;;13.93;6.67;;;;;;;9.63;100.00;101010.61;1603107;89;21132;-92
2022/02/11 13:05:46;;;;;;;17.32;6.42;;;;;;;9.63;100.00;100999.85;1603459;89;21104;-93
2022/02/11 13:08:22;;;;;;;19.37;7.03;;;;;;;9.65;100.00;101009.32;1603488;89;27047;-93
2022/02/11 13:13:31;;;;;;;23.40;8.83;;;;;;;9.59;100.00;101005.41;1514850;93;21940;-95
2022/02/11 13:16:18;;;;;;;;;;;;;;;;;;;;;
2022/02/11 13:21:17;;;;;;;19.17;8.90;;;;;;;9.43;100.00;101010.53;1405264;102;21123;-95
2022/02/11 13:23:49;;;;;;;21.80;9.58;;;;;;;9.40;100.00;101006.98;1384998;103;21593;-94
2022/02/11 13:26:14;;;;;;;28.25;8.88;;;;;;;9.34;100.00;101009.30;1404165;102;21139;-94
2022/02/11 13:28:53;;;;;;;22.35;9.53;;;;;;;9.30;100.00;101009.50;1403881;100;21165;-95
2022/02/11 13:31:27;;;;;;;19.62;8.53;;;;;;;9.27;100.00;101014.02;1405887;101;21164;-95
2022/02/11 13:34:17;;;;;;;22.98;8.63;;;;;;;9.22;100.00;101012.03;1344900;106;21826;-95
2022/02/11 13:36:48;;;;;;;28.10;9.60;;;;;;;9.23;100.00;101010.97;1325912;106;21210;-95
2022/02/11 13:39:35;;;;;;;16.20;7.97;;;;;;;9.23;100.00;101008.81;1357521;103;21117;-96
2022/02/11 13:42:14;;;;;;;19.57;7.72;;;;;;;9.23;100.00;101009.63;1373435;104;21211;-95
2022/02/11 13:44:41;;;;;;;16.85;8.15;;;;;;;9.16;100.00;101007.63;1361228;105;21261;-95
2022/02/11 13:47:18;;;;;;;19.57;7.25;;;;;;;9.23;100.00;101007.47;1338489;105;20978;-95
2022/02/11 13:49:44;;;;;;;16.97;7.37;;;;;;;9.21;100.00;101012.30;1387867;102;21161;-95
2022/02/11 13:55:01;;;;;;;16.97;7.67;;;;;;;9.20;100.00;101009.30;1391341;102;21088;-94
2022/02/11 13:57:27;;;;;;;17.60;7.65;;;;;;;9.16;100.00;101006.28;1384725;102;21386;-94
2022/02/11 13:59:53;;;;;;;17.95;8.18;;;;;;;9.15;100.00;101003.81;1387383;102;21190;-94
2022/02/11 14:02:21;;;;;;;23.07;8.58;;;;;;;9.12;100.00;101008.33;1388570;99;21247;-95
2022/02/11 14:05:02;;;;;;;16.00;6.92;;;;;;;9.09;100.00;101005.08;1435618;99;21078;-94
2022/02/11 14:07:27;;;;;;;17.25;7.12;;;;;;;9.06;100.00;101010.94;1469941;95;21079;-89
2022/02/11 14:09:54;;;;;;;15.55;7.80;;;;;;;9.05;100.00;100999.06;1497122;95;21868;-94
2022/02/11 14:12:25;;;;;;;17.37;7.50;;;;;;;9.03;100.00;101001.17;1497143;95;21157;-93
2022/02/11 14:14:55;;;;;;;19.05;8.25;;;;;;;8.99;100.00;100993.30;1496642;95;21642;-94
2022/02/11 14:17:22;;;;;;;27.20;9.15;;;;;;;8.96;100.00;100985.19;1441095;98;21098;-94
2022/02/11 14:19:48;;;;;;;23.77;8.90;;;;;;;8.92;100.00;100990.77;1468095;97;21170;-94
2022/02/11 14:22:14;;;;;;;29.80;10.55;;;;;;;8.82;100.00;100987.36;1511990;92;21874;-93
2022/02/11 14:24:40;;;;;;;27.37;10.15;;;;;;;8.68;100.00;100984.64;1548303;92;21013;-94
2022/02/11 14:27:07;;;;;;;28.85;9.98;;;;;;;8.57;100.00;100984.95;1548346;92;20954;-94
2022/02/11 14:29:33;;;;;;;23.42;9.90;;;;;;;8.48;100.00;100989.59;1548290;92;21545;-94
2022/02/11 14:32:00;;;;;;;25.17;9.68;;;;;;;8.35;100.00;100990.11;1548187;92;21339;-93
2022/02/11 14:34:26;;;;;;;27.02;10.70;;;;;;;8.20;100.00;100989.21;1548283;92;21181;-93
2022/02/11 14:36:52;;;;;;;30.77;11.33;;;;;;;8.12;100.00;100983.41;1580661;89;20976;-93
2022/02/11 14:39:18;;;;;;;33.35;11.43;;;;;;;8.03;100.00;100980.25;1602278;89;21076;-93
2022/02/11 14:41:47;;;;;;;29.80;10.45;;;;;;;7.95;100.00;100983.28;1602728;89;21010;-93
2022/02/11 14:44:26;;;;;;;28.80;11.12;;;;;;;7.87;100.00;100986.30;1602821;89;21001;-92
2022/02/11 14:46:58;;;;;;;27.52;10.82;;;;;;;7.79;100.00;100992.81;1607337;87;21107;-93
2022/02/11 14:49:26;;;;;;;30.82;11.70;;;;;;;7.66;100.00;101001.09;1663339;80;21937;-93
2022/02/11 14:51:56;;;;;;;25.88;11.57;;;;;;;7.56;100.00;100997.63;1745470;80;21544;-93
2022/02/11 14:54:23;;;;;;;35.60;12.78;;;;;;;7.46;100.00;101001.38;1762758;81;20998;-93
2022/02/11 14:56:51;;;;;;;36.45;13.58;;;;;;;7.34;100.00;100995.17;1762279;81;21066;-92
2022/02/11 14:59:19;;;;;;;40.43;16.02;;;;;;;7.19;100.00;100995.05;1761489;81;21168;-93
2022/02/11 15:01:47;;;;;;;36.45;14.93;;;;;;;7.03;100.00;100996.52;1778458;79;21038;-93
2022/02/11 15:04:17;;;;;;;40.43;16.42;;;;;;;6.91;100.00;100995.65;1803417;79;21030;-92
2022/02/11 15:06:51;;;;;;;50.80;19.12;;;;;;;6.77;100.00;100999.00;1806421;79;21085;-95
2022/02/11 15:09:20;;;;;;;46.25;17.73;;;;;;;6.61;100.00;100998.25;1742449;82;21090;-92
2022/02/11 15:11:46;;;;;;;43.02;17.45;;;;;;;6.50;100.00;101011.03;1743693;82;21118;-94
2022/02/11 15:14:13;;;;;;;42.00;16.73;;;;;;;6.35;100.00;101011.39;1743668;82;20982;-93
2022/02/11 15:16:39;;;;;;;46.88;18.25;;;;;;;6.21;100.00;101013.93;1744192;82;21559;-92
2022/02/11 15:19:06;;;;;;;47.95;18.87;;;;;;;6.06;100.00;101027.62;1719250;82;21433;-93
2022/02/11 15:21:33;;;;;;;55.30;20.62;;;;;;;5.91;100.00;101026.58;1718202;82;20959;-93
2022/02/11 15:24:00;;;;;;;55.20;20.85;;;;;;;5.77;100.00;101033.09;1744404;82;21085;-90
2022/02/11 15:26:26;;;;;;;54.83;21.23;;;;;;;5.60;100.00;101032.79;1744179;82;21575;-92
2022/02/11 15:28:52;;;;;;;58.65;22.65;;;;;;;5.46;100.00;101050.23;1744698;82;21057;-91
2022/02/11 15:31:18;;;;;;;53.65;20.62;;;;;;;5.37;100.00;101046.17;1735325;82;21062;-91
2022/02/11 15:33:44;;;;;;;58.08;21.17;;;;;;;5.31;100.00;101046.22;1720370;82;21183;-91
2022/02/11 15:36:12;;;;;;;58.02;22.93;;;;;;;5.27;100.00;101039.67;1743416;82;21055;-91
2022/02/11 15:38:38;;;;;;;68.07;23.62;;;;;;;5.27;100.00;101049.03;1744085;82;21078;-92